sensor_id;sensor_type;location;lat;lon;timestamp;temperature;humidity
20566;DHT22;10441;50.884;12.064;2023-03-05T00:01:02;3.30;99.90
20566;DHT22;10441;50.884;12.064;2023-03-05T00:03:31;3.30;99.90
20566;DHT22;10441;50.884;12.064;2023-03-05T00:05:57;3.20;99.90
20566;DHT22;10441;50.884;12.064;2023-03-05T00:08:26;3.20;99.90
20566;DHT22;10441;50.884;12.064;2023-03-05T00:10:56;3.30;99.90
20566;DHT22;10441;50.884;12.064;2023-03-05T00:13:27;3.30;99.90
20566;DHT22;10441;50.884;12.064;2023-03-05T00:15:55;3.30;99.90
20566;DHT22;10441;50.884;12.064;2023-03-05T00:18:23;3.30;99.90
20566;DHT22;10441;50.884;12.064;2023-03-05T00:20:52;3.20;99.90
20566;DHT22;10441;50.884;12.064;2023-03-05T00:23:18;3.20;99.90
20566;DHT22;10441;50.884;12.064;2023-03-05T00:25:46;3.20;99.90
20566;DHT22;10441;50.884;12.064;2023-03-05T00:28:14;3.20;99.90
20566;DHT22;10441;50.884;12.064;2023-03-05T00:30:41;3.20;99.90
20566;DHT22;10441;50.884;12.064;2023-03-05T00:33:09;3.30;99.90
20566;DHT22;10441;50.884;12.064;2023-03-05T00:35:40;3.30;99.90
20566;DHT22;10441;50.884;12.064;2023-03-05T00:38:08;3.30;99.90
20566;DHT22;10441;50.884;12.064;2023-03-05T00:40:37;3.20;99.90
20566;DHT22;10441;50.884;12.064;2023-03-05T00:43:05;3.10;99.90
20566;DHT22;10441;50.884;12.064;2023-03-05T00:45:33;3.00;99.90
20566;DHT22;10441;50.884;12.064;2023-03-05T00:48:01;3.10;99.90
20566;DHT22;10441;50.884;12.064;2023-03-05T00:50:30;3.00;99.90
20566;DHT22;10441;50.884;12.064;2023-03-05T00:53:00;3.10;99.90
20566;DHT22;10441;50.884;12.064;2023-03-05T00:55:26;3.00;99.90
20566;DHT22;10441;50.884;12.064;2023-03-05T00:57:54;2.90;99.90
20566;DHT22;10441;50.884;12.064;2023-03-05T01:00:24;2.80;99.90
20566;DHT22;10441;50.884;12.064;2023-03-05T01:02:55;2.70;99.90
20566;DHT22;10441;50.884;12.064;2023-03-05T01:05:21;2.80;99.90
20566;DHT22;10441;50.884;12.064;2023-03-05T01:07:51;2.70;99.90
20566;DHT22;10441;50.884;12.064;2023-03-05T01:10:20;2.60;99.90
20566;DHT22;10441;50.884;12.064;2023-03-05T01:12:48;2.70;99.90
20566;DHT22;10441;50.884;12.064;2023-03-05T01:15:15;2.70;99.90
20566;DHT22;10441;50.884;12.064;2023-03-05T01:17:43;2.70;99.90
20566;DHT22;10441;50.884;12.064;2023-03-05T01:20:11;2.70;99.90
20566;DHT22;10441;50.884;12.064;2023-03-05T01:22:39;2.70;99.90
20566;DHT22;10441;50.884;12.064;2023-03-05T01:25:08;2.80;99.90
20566;DHT22;10441;50.884;12.064;2023-03-05T01:27:36;2.70;99.90
20566;DHT22;10441;50.884;12.064;2023-03-05T01:30:04;2.70;99.90
20566;DHT22;10441;50.884;12.064;2023-03-05T01:32:33;2.60;99.90
20566;DHT22;10441;50.884;12.064;2023-03-05T01:35:01;2.50;99.90
20566;DHT22;10441;50.884;12.064;2023-03-05T01:37:29;2.50;99.90
20566;DHT22;10441;50.884;12.064;2023-03-05T01:39:59;2.40;99.90
20566;DHT22;10441;50.884;12.064;2023-03-05T01:42:26;2.40;99.90
20566;DHT22;10441;50.884;12.064;2023-03-05T01:45:02;2.40;99.90
20566;DHT22;10441;50.884;12.064;2023-03-05T01:47:30;2.30;99.90
20566;DHT22;10441;50.884;12.064;2023-03-05T01:49:59;2.40;99.90
20566;DHT22;10441;50.884;12.064;2023-03-05T01:52:27;2.40;99.90
20566;DHT22;10441;50.884;12.064;2023-03-05T01:54:55;2.40;99.90
20566;DHT22;10441;50.884;12.064;2023-03-05T01:57:26;2.40;99.90
20566;DHT22;10441;50.884;12.064;2023-03-05T01:59:54;2.30;99.90
20566;DHT22;10441;50.884;12.064;2023-03-05T02:02:25;2.30;99.90
20566;DHT22;10441;50.884;12.064;2023-03-05T02:04:54;2.30;99.90
20566;DHT22;10441;50.884;12.064;2023-03-05T02:07:25;2.40;99.90
20566;DHT22;10441;50.884;12.064;2023-03-05T02:09:54;2.40;99.90
20566;DHT22;10441;50.884;12.064;2023-03-05T02:12:22;2.40;99.90
20566;DHT22;10441;50.884;12.064;2023-03-05T02:14:50;2.40;99.90
20566;DHT22;10441;50.884;12.064;2023-03-05T02:17:27;2.40;99.90
20566;DHT22;10441;50.884;12.064;2023-03-05T02:19:57;2.50;99.90
20566;DHT22;10441;50.884;12.064;2023-03-05T02:22:31;2.40;99.90
20566;DHT22;10441;50.884;12.064;2023-03-05T02:24:59;2.40;99.90
20566;DHT22;10441;50.884;12.064;2023-03-05T02:27:29;2.40;99.90
20566;DHT22;10441;50.884;12.064;2023-03-05T02:30:00;2.40;99.90
20566;DHT22;10441;50.884;12.064;2023-03-05T02:32:27;2.40;99.90
20566;DHT22;10441;50.884;12.064;2023-03-05T02:34:55;2.30;99.90
20566;DHT22;10441;50.884;12.064;2023-03-05T02:37:23;2.30;99.90
20566;DHT22;10441;50.884;12.064;2023-03-05T02:39:53;2.30;99.90
20566;DHT22;10441;50.884;12.064;2023-03-05T02:42:21;2.30;99.90
20566;DHT22;10441;50.884;12.064;2023-03-05T02:44:48;2.30;99.90
20566;DHT22;10441;50.884;12.064;2023-03-05T02:47:16;2.30;99.90
20566;DHT22;10441;50.884;12.064;2023-03-05T02:49:43;2.30;99.90
20566;DHT22;10441;50.884;12.064;2023-03-05T02:52:10;2.30;99.90
20566;DHT22;10441;50.884;12.064;2023-03-05T02:54:37;2.40;99.90
20566;DHT22;10441;50.884;12.064;2023-03-05T02:57:07;2.30;99.90
20566;DHT22;10441;50.884;12.064;2023-03-05T02:59:35;2.40;99.90
20566;DHT22;10441;50.884;12.064;2023-03-05T03:02:03;2.30;99.90
20566;DHT22;10441;50.884;12.064;2023-03-05T03:04:31;2.20;99.90
20566;DHT22;10441;50.884;12.064;2023-03-05T03:06:59;2.30;99.90
20566;DHT22;10441;50.884;12.064;2023-03-05T03:09:27;2.30;99.90
20566;DHT22;10441;50.884;12.064;2023-03-05T03:11:55;2.30;99.90
20566;DHT22;10441;50.884;12.064;2023-03-05T03:14:24;2.30;99.90
20566;DHT22;10441;50.884;12.064;2023-03-05T03:16:52;2.30;99.90
20566;DHT22;10441;50.884;12.064;2023-03-05T03:19:18;2.30;99.90
20566;DHT22;10441;50.884;12.064;2023-03-05T03:21:47;2.30;99.90
20566;DHT22;10441;50.884;12.064;2023-03-05T03:24:16;2.20;99.90
20566;DHT22;10441;50.884;12.064;2023-03-05T03:26:44;2.20;99.90
20566;DHT22;10441;50.884;12.064;2023-03-05T03:29:11;2.30;99.90
20566;DHT22;10441;50.884;12.064;2023-03-05T03:31:41;2.20;99.90
20566;DHT22;10441;50.884;12.064;2023-03-05T03:34:09;2.20;99.90
20566;DHT22;10441;50.884;12.064;2023-03-05T03:36:37;2.30;99.90
20566;DHT22;10441;50.884;12.064;2023-03-05T03:39:05;2.30;99.90
20566;DHT22;10441;50.884;12.064;2023-03-05T03:41:34;2.20;99.90
20566;DHT22;10441;50.884;12.064;2023-03-05T03:44:03;2.20;99.90
20566;DHT22;10441;50.884;12.064;2023-03-05T03:46:34;2.20;99.90
20566;DHT22;10441;50.884;12.064;2023-03-05T03:49:03;2.20;99.90
20566;DHT22;10441;50.884;12.064;2023-03-05T03:51:31;2.30;99.90
20566;DHT22;10441;50.884;12.064;2023-03-05T03:53:59;2.30;99.90
20566;DHT22;10441;50.884;12.064;2023-03-05T03:56:26;2.30;99.90
20566;DHT22;10441;50.884;12.064;2023-03-05T03:58:56;2.20;99.90
20566;DHT22;10441;50.884;12.064;2023-03-05T04:01:24;2.30;99.90
20566;DHT22;10441;50.884;12.064;2023-03-05T04:03:52;2.20;99.90
20566;DHT22;10441;50.884;12.064;2023-03-05T04:06:22;2.30;99.90
20566;DHT22;10441;50.884;12.064;2023-03-05T04:08:48;2.30;99.90
20566;DHT22;10441;50.884;12.064;2023-03-05T04:11:17;2.30;99.90
20566;DHT22;10441;50.884;12.064;2023-03-05T04:13:44;2.20;99.90
20566;DHT22;10441;50.884;12.064;2023-03-05T04:16:13;2.30;99.90
20566;DHT22;10441;50.884;12.064;2023-03-05T04:18:41;2.30;99.90
20566;DHT22;10441;50.884;12.064;2023-03-05T04:21:09;2.20;99.90
20566;DHT22;10441;50.884;12.064;2023-03-05T04:23:43;2.30;99.90
20566;DHT22;10441;50.884;12.064;2023-03-05T04:26:11;2.40;99.90
20566;DHT22;10441;50.884;12.064;2023-03-05T04:28:38;2.40;99.90
20566;DHT22;10441;50.884;12.064;2023-03-05T04:31:06;2.40;99.90
20566;DHT22;10441;50.884;12.064;2023-03-05T04:33:34;2.30;99.90
20566;DHT22;10441;50.884;12.064;2023-03-05T04:36:02;2.30;99.90
20566;DHT22;10441;50.884;12.064;2023-03-05T04:38:30;2.20;99.90
20566;DHT22;10441;50.884;12.064;2023-03-05T04:41:00;2.10;99.90
20566;DHT22;10441;50.884;12.064;2023-03-05T04:43:28;2.10;99.90
20566;DHT22;10441;50.884;12.064;2023-03-05T04:45:55;2.20;99.90
20566;DHT22;10441;50.884;12.064;2023-03-05T04:48:22;2.20;99.90
20566;DHT22;10441;50.884;12.064;2023-03-05T04:50:50;2.20;99.90
20566;DHT22;10441;50.884;12.064;2023-03-05T04:53:19;2.00;99.90
20566;DHT22;10441;50.884;12.064;2023-03-05T04:55:45;2.00;99.90
20566;DHT22;10441;50.884;12.064;2023-03-05T04:58:25;2.00;99.90
20566;DHT22;10441;50.884;12.064;2023-03-05T05:00:52;2.20;99.90
20566;DHT22;10441;50.884;12.064;2023-03-05T05:03:19;2.20;99.90
20566;DHT22;10441;50.884;12.064;2023-03-05T05:05:52;2.00;99.90
20566;DHT22;10441;50.884;12.064;2023-03-05T05:08:21;1.90;99.90
20566;DHT22;10441;50.884;12.064;2023-03-05T05:10:58;1.80;99.90
20566;DHT22;10441;50.884;12.064;2023-03-05T05:13:28;1.90;99.90
20566;DHT22;10441;50.884;12.064;2023-03-05T05:15:56;1.90;99.90
20566;DHT22;10441;50.884;12.064;2023-03-05T05:18:24;1.90;99.90
20566;DHT22;10441;50.884;12.064;2023-03-05T05:20:53;1.90;99.90
20566;DHT22;10441;50.884;12.064;2023-03-05T05:23:21;1.90;99.90
20566;DHT22;10441;50.884;12.064;2023-03-05T05:25:54;2.00;99.90
20566;DHT22;10441;50.884;12.064;2023-03-05T05:28:23;2.00;99.90
20566;DHT22;10441;50.884;12.064;2023-03-05T05:30:52;2.00;99.90
20566;DHT22;10441;50.884;12.064;2023-03-05T05:33:19;1.90;99.90
20566;DHT22;10441;50.884;12.064;2023-03-05T05:35:47;2.10;99.90
20566;DHT22;10441;50.884;12.064;2023-03-05T05:38:15;2.20;99.90
20566;DHT22;10441;50.884;12.064;2023-03-05T05:40:43;2.10;99.90
20566;DHT22;10441;50.884;12.064;2023-03-05T05:43:11;2.00;99.90
20566;DHT22;10441;50.884;12.064;2023-03-05T05:45:39;2.00;99.90
20566;DHT22;10441;50.884;12.064;2023-03-05T05:48:08;2.10;99.90
20566;DHT22;10441;50.884;12.064;2023-03-05T05:50:36;2.10;99.90
20566;DHT22;10441;50.884;12.064;2023-03-05T05:53:04;2.10;99.90
20566;DHT22;10441;50.884;12.064;2023-03-05T05:55:32;2.00;99.90
20566;DHT22;10441;50.884;12.064;2023-03-05T05:58:00;2.00;99.90
20566;DHT22;10441;50.884;12.064;2023-03-05T06:00:28;2.10;99.90
20566;DHT22;10441;50.884;12.064;2023-03-05T06:03:02;2.10;99.90
20566;DHT22;10441;50.884;12.064;2023-03-05T06:05:31;2.20;99.90
20566;DHT22;10441;50.884;12.064;2023-03-05T06:08:00;2.20;99.90
20566;DHT22;10441;50.884;12.064;2023-03-05T06:10:28;2.20;99.90
20566;DHT22;10441;50.884;12.064;2023-03-05T06:12:54;2.20;99.90
20566;DHT22;10441;50.884;12.064;2023-03-05T06:15:23;2.20;99.90
20566;DHT22;10441;50.884;12.064;2023-03-05T06:17:51;2.20;99.90
20566;DHT22;10441;50.884;12.064;2023-03-05T06:20:20;2.20;99.90
20566;DHT22;10441;50.884;12.064;2023-03-05T06:22:48;2.30;99.90
20566;DHT22;10441;50.884;12.064;2023-03-05T06:25:17;2.40;99.90
20566;DHT22;10441;50.884;12.064;2023-03-05T06:27:44;2.50;99.90
20566;DHT22;10441;50.884;12.064;2023-03-05T06:30:12;2.50;99.90
20566;DHT22;10441;50.884;12.064;2023-03-05T06:32:40;2.50;99.90
20566;DHT22;10441;50.884;12.064;2023-03-05T06:35:10;2.50;99.90
20566;DHT22;10441;50.884;12.064;2023-03-05T06:37:39;2.60;99.90
20566;DHT22;10441;50.884;12.064;2023-03-05T06:40:09;2.60;99.90
20566;DHT22;10441;50.884;12.064;2023-03-05T06:42:38;2.70;99.90
20566;DHT22;10441;50.884;12.064;2023-03-05T06:45:06;2.70;99.90
20566;DHT22;10441;50.884;12.064;2023-03-05T06:47:33;2.70;99.90
20566;DHT22;10441;50.884;12.064;2023-03-05T06:50:00;2.60;99.90
20566;DHT22;10441;50.884;12.064;2023-03-05T06:52:27;2.80;99.90
20566;DHT22;10441;50.884;12.064;2023-03-05T06:54:55;2.80;99.90
20566;DHT22;10441;50.884;12.064;2023-03-05T06:57:25;2.70;99.90
20566;DHT22;10441;50.884;12.064;2023-03-05T06:59:53;2.80;99.90
20566;DHT22;10441;50.884;12.064;2023-03-05T07:02:21;2.80;99.90
20566;DHT22;10441;50.884;12.064;2023-03-05T07:04:49;2.80;99.90
20566;DHT22;10441;50.884;12.064;2023-03-05T07:07:17;2.90;99.90
20566;DHT22;10441;50.884;12.064;2023-03-05T07:09:44;3.00;99.90
20566;DHT22;10441;50.884;12.064;2023-03-05T07:12:13;3.10;99.90
20566;DHT22;10441;50.884;12.064;2023-03-05T07:14:43;3.10;99.90
20566;DHT22;10441;50.884;12.064;2023-03-05T07:17:11;3.20;99.90
20566;DHT22;10441;50.884;12.064;2023-03-05T07:19:40;3.20;99.90
20566;DHT22;10441;50.884;12.064;2023-03-05T07:22:09;3.20;99.90
20566;DHT22;10441;50.884;12.064;2023-03-05T07:24:36;3.30;99.90
20566;DHT22;10441;50.884;12.064;2023-03-05T07:27:05;3.30;99.90
20566;DHT22;10441;50.884;12.064;2023-03-05T07:29:33;3.30;99.90
20566;DHT22;10441;50.884;12.064;2023-03-05T07:32:04;3.30;99.90
20566;DHT22;10441;50.884;12.064;2023-03-05T07:34:33;3.40;99.90
20566;DHT22;10441;50.884;12.064;2023-03-05T07:37:03;3.30;99.90
20566;DHT22;10441;50.884;12.064;2023-03-05T07:39:30;3.40;99.90
20566;DHT22;10441;50.884;12.064;2023-03-05T07:41:59;3.50;99.90
20566;DHT22;10441;50.884;12.064;2023-03-05T07:44:27;3.40;99.90
20566;DHT22;10441;50.884;12.064;2023-03-05T07:46:55;3.70;99.90
20566;DHT22;10441;50.884;12.064;2023-03-05T07:49:30;3.80;99.90
20566;DHT22;10441;50.884;12.064;2023-03-05T07:51:57;3.70;99.90
20566;DHT22;10441;50.884;12.064;2023-03-05T07:54:28;3.70;99.90
20566;DHT22;10441;50.884;12.064;2023-03-05T07:56:55;3.70;99.90
20566;DHT22;10441;50.884;12.064;2023-03-05T07:59:23;3.80;99.90
20566;DHT22;10441;50.884;12.064;2023-03-05T08:01:50;3.80;99.90
20566;DHT22;10441;50.884;12.064;2023-03-05T08:04:19;3.70;99.90
20566;DHT22;10441;50.884;12.064;2023-03-05T08:06:49;3.70;99.90
20566;DHT22;10441;50.884;12.064;2023-03-05T08:09:16;3.70;99.90
20566;DHT22;10441;50.884;12.064;2023-03-05T08:11:43;3.80;99.90
20566;DHT22;10441;50.884;12.064;2023-03-05T08:14:10;3.90;99.90
20566;DHT22;10441;50.884;12.064;2023-03-05T08:16:42;4.00;99.90
20566;DHT22;10441;50.884;12.064;2023-03-05T08:19:12;3.90;99.90
20566;DHT22;10441;50.884;12.064;2023-03-05T08:21:40;4.20;99.90
20566;DHT22;10441;50.884;12.064;2023-03-05T08:24:10;4.00;99.90
20566;DHT22;10441;50.884;12.064;2023-03-05T08:26:42;4.10;99.90
20566;DHT22;10441;50.884;12.064;2023-03-05T08:29:11;4.20;99.90
20566;DHT22;10441;50.884;12.064;2023-03-05T08:31:39;4.30;99.90
20566;DHT22;10441;50.884;12.064;2023-03-05T08:34:07;4.10;99.90
20566;DHT22;10441;50.884;12.064;2023-03-05T08:36:35;4.00;99.90
20566;DHT22;10441;50.884;12.064;2023-03-05T08:39:02;3.80;99.90
20566;DHT22;10441;50.884;12.064;2023-03-05T08:41:35;4.10;99.90
20566;DHT22;10441;50.884;12.064;2023-03-05T08:44:03;3.80;99.90
20566;DHT22;10441;50.884;12.064;2023-03-05T08:46:34;3.70;99.90
20566;DHT22;10441;50.884;12.064;2023-03-05T08:49:01;3.80;99.90
20566;DHT22;10441;50.884;12.064;2023-03-05T08:51:28;3.90;99.90
20566;DHT22;10441;50.884;12.064;2023-03-05T08:53:57;4.10;99.90
20566;DHT22;10441;50.884;12.064;2023-03-05T08:56:25;3.90;99.90
20566;DHT22;10441;50.884;12.064;2023-03-05T08:58:57;3.90;99.90
20566;DHT22;10441;50.884;12.064;2023-03-05T09:01:24;4.30;99.90
20566;DHT22;10441;50.884;12.064;2023-03-05T09:03:53;4.20;99.90
20566;DHT22;10441;50.884;12.064;2023-03-05T09:06:23;4.10;99.90
20566;DHT22;10441;50.884;12.064;2023-03-05T09:08:52;3.80;99.90
20566;DHT22;10441;50.884;12.064;2023-03-05T09:11:20;3.60;99.90
20566;DHT22;10441;50.884;12.064;2023-03-05T09:13:51;3.80;99.90
20566;DHT22;10441;50.884;12.064;2023-03-05T09:16:21;3.80;99.90
20566;DHT22;10441;50.884;12.064;2023-03-05T09:18:51;3.70;99.90
20566;DHT22;10441;50.884;12.064;2023-03-05T09:21:19;3.50;99.90
20566;DHT22;10441;50.884;12.064;2023-03-05T09:23:47;3.60;99.90
20566;DHT22;10441;50.884;12.064;2023-03-05T09:26:16;3.80;99.90
20566;DHT22;10441;50.884;12.064;2023-03-05T09:28:46;3.80;99.90
20566;DHT22;10441;50.884;12.064;2023-03-05T09:31:13;3.80;99.90
20566;DHT22;10441;50.884;12.064;2023-03-05T09:33:41;3.60;99.90
20566;DHT22;10441;50.884;12.064;2023-03-05T09:36:15;3.60;99.90
20566;DHT22;10441;50.884;12.064;2023-03-05T09:38:43;3.70;99.90
20566;DHT22;10441;50.884;12.064;2023-03-05T09:41:14;3.80;99.90
20566;DHT22;10441;50.884;12.064;2023-03-05T09:43:43;3.80;99.90
20566;DHT22;10441;50.884;12.064;2023-03-05T09:46:16;3.50;99.90
20566;DHT22;10441;50.884;12.064;2023-03-05T09:48:51;3.40;99.90
20566;DHT22;10441;50.884;12.064;2023-03-05T09:51:21;3.40;99.90
20566;DHT22;10441;50.884;12.064;2023-03-05T09:53:49;3.40;99.90
20566;DHT22;10441;50.884;12.064;2023-03-05T09:56:19;3.80;99.90
20566;DHT22;10441;50.884;12.064;2023-03-05T09:58:49;4.00;99.90
20566;DHT22;10441;50.884;12.064;2023-03-05T10:01:19;4.00;99.90
20566;DHT22;10441;50.884;12.064;2023-03-05T10:03:55;4.00;99.90
20566;DHT22;10441;50.884;12.064;2023-03-05T10:06:24;4.30;99.90
20566;DHT22;10441;50.884;12.064;2023-03-05T10:08:54;4.60;99.90
20566;DHT22;10441;50.884;12.064;2023-03-05T10:11:39;5.20;99.90
20566;DHT22;10441;50.884;12.064;2023-03-05T10:14:13;5.10;99.90
20566;DHT22;10441;50.884;12.064;2023-03-05T10:22:24;5.60;99.90
20566;DHT22;10441;50.884;12.064;2023-03-05T10:24:59;6.20;99.90
20566;DHT22;10441;50.884;12.064;2023-03-05T10:27:32;5.90;99.90
20566;DHT22;10441;50.884;12.064;2023-03-05T10:30:11;5.90;99.90
20566;DHT22;10441;50.884;12.064;2023-03-05T10:32:45;6.00;99.90
20566;DHT22;10441;50.884;12.064;2023-03-05T10:35:18;5.60;99.90
20566;DHT22;10441;50.884;12.064;2023-03-05T10:40:33;5.60;99.90
20566;DHT22;10441;50.884;12.064;2023-03-05T10:43:04;5.90;99.90
20566;DHT22;10441;50.884;12.064;2023-03-05T10:45:35;5.80;99.90
20566;DHT22;10441;50.884;12.064;2023-03-05T10:48:04;5.60;99.90
20566;DHT22;10441;50.884;12.064;2023-03-05T10:50:35;5.60;99.90
20566;DHT22;10441;50.884;12.064;2023-03-05T10:53:06;5.90;99.90
20566;DHT22;10441;50.884;12.064;2023-03-05T10:55:37;5.90;99.90
20566;DHT22;10441;50.884;12.064;2023-03-05T10:58:08;6.40;99.90
20566;DHT22;10441;50.884;12.064;2023-03-05T11:00:36;6.10;99.90
20566;DHT22;10441;50.884;12.064;2023-03-05T11:03:05;5.80;99.90
20566;DHT22;10441;50.884;12.064;2023-03-05T11:05:35;6.30;99.90
20566;DHT22;10441;50.884;12.064;2023-03-05T11:08:21;5.70;99.90
20566;DHT22;10441;50.884;12.064;2023-03-05T11:11:02;5.80;99.90
20566;DHT22;10441;50.884;12.064;2023-03-05T11:13:31;5.90;99.90
20566;DHT22;10441;50.884;12.064;2023-03-05T11:15:59;6.00;99.90
20566;DHT22;10441;50.884;12.064;2023-03-05T11:18:27;6.30;99.90
20566;DHT22;10441;50.884;12.064;2023-03-05T11:21:05;6.10;99.90
20566;DHT22;10441;50.884;12.064;2023-03-05T11:23:34;6.60;99.90
20566;DHT22;10441;50.884;12.064;2023-03-05T11:26:05;6.30;99.90
20566;DHT22;10441;50.884;12.064;2023-03-05T11:28:54;6.00;99.90
20566;DHT22;10441;50.884;12.064;2023-03-05T11:31:27;5.80;99.90
20566;DHT22;10441;50.884;12.064;2023-03-05T11:34:00;5.80;99.90
20566;DHT22;10441;50.884;12.064;2023-03-05T11:36:30;5.50;99.90
20566;DHT22;10441;50.884;12.064;2023-03-05T11:39:01;5.60;99.90
20566;DHT22;10441;50.884;12.064;2023-03-05T11:41:42;5.50;99.90
20566;DHT22;10441;50.884;12.064;2023-03-05T11:44:12;5.70;99.90
20566;DHT22;10441;50.884;12.064;2023-03-05T11:46:43;5.40;99.90
20566;DHT22;10441;50.884;12.064;2023-03-05T11:49:15;5.60;99.90
20566;DHT22;10441;50.884;12.064;2023-03-05T11:51:47;6.00;99.90
20566;DHT22;10441;50.884;12.064;2023-03-05T11:54:20;5.20;99.90
20566;DHT22;10441;50.884;12.064;2023-03-05T11:56:56;5.20;99.90
20566;DHT22;10441;50.884;12.064;2023-03-05T11:59:24;5.10;99.90
20566;DHT22;10441;50.884;12.064;2023-03-05T12:01:54;5.50;99.90
20566;DHT22;10441;50.884;12.064;2023-03-05T12:04:22;5.20;99.90
20566;DHT22;10441;50.884;12.064;2023-03-05T12:06:51;5.40;99.90
20566;DHT22;10441;50.884;12.064;2023-03-05T12:09:20;5.40;99.90
20566;DHT22;10441;50.884;12.064;2023-03-05T12:12:06;5.20;99.90
20566;DHT22;10441;50.884;12.064;2023-03-05T12:18:09;4.70;99.90
20566;DHT22;10441;50.884;12.064;2023-03-05T12:20:40;4.90;99.90
20566;DHT22;10441;50.884;12.064;2023-03-05T12:23:10;5.10;99.90
20566;DHT22;10441;50.884;12.064;2023-03-05T12:25:44;5.10;99.90
20566;DHT22;10441;50.884;12.064;2023-03-05T12:28:12;5.00;99.90
20566;DHT22;10441;50.884;12.064;2023-03-05T12:33:30;4.70;99.90
20566;DHT22;10441;50.884;12.064;2023-03-05T12:38:47;4.50;99.90
20566;DHT22;10441;50.884;12.064;2023-03-05T12:44:15;4.30;99.90
20566;DHT22;10441;50.884;12.064;2023-03-05T12:49:32;4.90;99.90
20566;DHT22;10441;50.884;12.064;2023-03-05T12:52:02;4.80;99.90
20566;DHT22;10441;50.884;12.064;2023-03-05T12:54:33;4.70;99.90
20566;DHT22;10441;50.884;12.064;2023-03-05T12:57:02;4.30;99.90
20566;DHT22;10441;50.884;12.064;2023-03-05T12:59:37;4.20;99.90
20566;DHT22;10441;50.884;12.064;2023-03-05T13:02:13;4.30;99.90
20566;DHT22;10441;50.884;12.064;2023-03-05T13:04:45;4.30;99.90
20566;DHT22;10441;50.884;12.064;2023-03-05T13:07:14;4.60;99.90
20566;DHT22;10441;50.884;12.064;2023-03-05T13:09:50;4.40;99.90
20566;DHT22;10441;50.884;12.064;2023-03-05T13:12:18;4.70;99.90
20566;DHT22;10441;50.884;12.064;2023-03-05T13:14:46;4.50;99.90
20566;DHT22;10441;50.884;12.064;2023-03-05T13:17:28;4.50;99.90
20566;DHT22;10441;50.884;12.064;2023-03-05T13:19:57;4.40;99.90
20566;DHT22;10441;50.884;12.064;2023-03-05T13:22:25;4.00;99.90
20566;DHT22;10441;50.884;12.064;2023-03-05T13:27:46;3.60;99.90
20566;DHT22;10441;50.884;12.064;2023-03-05T13:30:21;3.40;99.90
20566;DHT22;10441;50.884;12.064;2023-03-05T13:32:55;2.70;99.90
20566;DHT22;10441;50.884;12.064;2023-03-05T13:35:24;2.30;99.90
20566;DHT22;10441;50.884;12.064;2023-03-05T13:37:53;2.60;99.90
20566;DHT22;10441;50.884;12.064;2023-03-05T13:40:21;2.70;99.90
20566;DHT22;10441;50.884;12.064;2023-03-05T13:42:50;3.00;99.90
20566;DHT22;10441;50.884;12.064;2023-03-05T13:45:23;3.10;99.90
20566;DHT22;10441;50.884;12.064;2023-03-05T13:47:53;3.50;99.90
20566;DHT22;10441;50.884;12.064;2023-03-05T13:50:27;3.90;99.90
20566;DHT22;10441;50.884;12.064;2023-03-05T13:53:12;3.90;99.90
20566;DHT22;10441;50.884;12.064;2023-03-05T13:55:41;3.70;99.90
20566;DHT22;10441;50.884;12.064;2023-03-05T14:01:00;3.90;99.90
20566;DHT22;10441;50.884;12.064;2023-03-05T14:03:29;3.80;99.90
20566;DHT22;10441;50.884;12.064;2023-03-05T14:06:00;3.90;99.90
20566;DHT22;10441;50.884;12.064;2023-03-05T14:08:28;3.90;99.90
20566;DHT22;10441;50.884;12.064;2023-03-05T14:10:58;3.90;99.90
20566;DHT22;10441;50.884;12.064;2023-03-05T14:13:38;3.90;99.90
20566;DHT22;10441;50.884;12.064;2023-03-05T14:16:07;3.90;99.90
20566;DHT22;10441;50.884;12.064;2023-03-05T14:18:35;4.00;99.90
20566;DHT22;10441;50.884;12.064;2023-03-05T14:21:06;4.00;99.90
20566;DHT22;10441;50.884;12.064;2023-03-05T14:23:37;4.00;99.90
20566;DHT22;10441;50.884;12.064;2023-03-05T14:28:54;4.10;99.90
20566;DHT22;10441;50.884;12.064;2023-03-05T14:31:23;4.00;99.90
20566;DHT22;10441;50.884;12.064;2023-03-05T14:33:50;4.00;99.90
20566;DHT22;10441;50.884;12.064;2023-03-05T14:36:23;4.20;99.90
20566;DHT22;10441;50.884;12.064;2023-03-05T14:38:52;4.00;99.90
20566;DHT22;10441;50.884;12.064;2023-03-05T14:41:34;4.10;99.90
20566;DHT22;10441;50.884;12.064;2023-03-05T14:44:01;4.10;99.90
20566;DHT22;10441;50.884;12.064;2023-03-05T14:46:29;4.10;99.90
20566;DHT22;10441;50.884;12.064;2023-03-05T14:48:57;4.30;99.90
20566;DHT22;10441;50.884;12.064;2023-03-05T14:51:31;4.30;99.90
20566;DHT22;10441;50.884;12.064;2023-03-05T14:54:00;4.30;99.90
20566;DHT22;10441;50.884;12.064;2023-03-05T14:56:28;4.40;99.90
20566;DHT22;10441;50.884;12.064;2023-03-05T14:58:56;4.40;99.90
20566;DHT22;10441;50.884;12.064;2023-03-05T15:01:24;4.40;99.90
20566;DHT22;10441;50.884;12.064;2023-03-05T15:03:52;4.60;99.90
20566;DHT22;10441;50.884;12.064;2023-03-05T15:06:20;4.70;99.90
20566;DHT22;10441;50.884;12.064;2023-03-05T15:08:51;4.60;99.90
20566;DHT22;10441;50.884;12.064;2023-03-05T15:11:19;4.60;99.90
20566;DHT22;10441;50.884;12.064;2023-03-05T15:13:47;4.50;99.90
20566;DHT22;10441;50.884;12.064;2023-03-05T15:16:16;4.40;99.90
20566;DHT22;10441;50.884;12.064;2023-03-05T15:18:46;4.60;99.90
20566;DHT22;10441;50.884;12.064;2023-03-05T15:21:17;4.50;99.90
20566;DHT22;10441;50.884;12.064;2023-03-05T15:23:44;4.40;99.90
20566;DHT22;10441;50.884;12.064;2023-03-05T15:26:13;4.30;99.90
20566;DHT22;10441;50.884;12.064;2023-03-05T15:28:40;4.20;99.90
20566;DHT22;10441;50.884;12.064;2023-03-05T15:31:09;4.20;99.90
20566;DHT22;10441;50.884;12.064;2023-03-05T15:33:37;4.20;99.90
20566;DHT22;10441;50.884;12.064;2023-03-05T15:36:06;4.20;99.90
20566;DHT22;10441;50.884;12.064;2023-03-05T15:38:35;4.20;99.90
20566;DHT22;10441;50.884;12.064;2023-03-05T15:41:04;4.20;99.90
20566;DHT22;10441;50.884;12.064;2023-03-05T15:43:34;4.30;99.90
20566;DHT22;10441;50.884;12.064;2023-03-05T15:46:04;4.30;99.90
20566;DHT22;10441;50.884;12.064;2023-03-05T15:48:32;4.20;99.90
20566;DHT22;10441;50.884;12.064;2023-03-05T15:51:00;4.30;99.90
20566;DHT22;10441;50.884;12.064;2023-03-05T15:53:28;4.20;99.90
20566;DHT22;10441;50.884;12.064;2023-03-05T15:55:56;4.30;99.90
20566;DHT22;10441;50.884;12.064;2023-03-05T15:58:24;4.30;99.90
20566;DHT22;10441;50.884;12.064;2023-03-05T16:00:53;4.30;99.90
20566;DHT22;10441;50.884;12.064;2023-03-05T16:03:23;4.20;99.90
20566;DHT22;10441;50.884;12.064;2023-03-05T16:05:51;4.20;99.90
20566;DHT22;10441;50.884;12.064;2023-03-05T16:08:19;4.20;99.90
20566;DHT22;10441;50.884;12.064;2023-03-05T16:10:47;4.20;99.90
20566;DHT22;10441;50.884;12.064;2023-03-05T16:13:18;4.20;99.90
20566;DHT22;10441;50.884;12.064;2023-03-05T16:15:44;4.20;99.90